sensor_id;sensor_type;location;lat;lon;timestamp;pressure;altitude;pressure_sealevel;temperature;humidity
5053;BME280;2545;50.892;5.740;2022-12-08T00:00:50;56392.50;;;-142.21;100.00
5053;BME280;2545;50.892;5.740;2022-12-08T00:03:16;56406.22;;;-142.21;100.00
5053;BME280;2545;50.892;5.740;2022-12-08T00:05:46;56400.34;;;-142.21;100.00
5053;BME280;2545;50.892;5.740;2022-12-08T00:08:30;56402.31;;;-142.21;100.00
5053;BME280;2545;50.892;5.740;2022-12-08T00:11:14;56423.88;;;-142.21;100.00
5053;BME280;2545;50.892;5.740;2022-12-08T00:13:40;56435.66;;;-142.21;100.00
5053;BME280;2545;50.892;5.740;2022-12-08T00:16:06;56421.91;;;-142.21;100.00
5053;BME280;2545;50.892;5.740;2022-12-08T00:18:31;56461.13;;;-142.21;100.00
5053;BME280;2545;50.892;5.740;2022-12-08T00:20:57;56439.56;;;-142.21;100.00
5053;BME280;2545;50.892;5.740;2022-12-08T00:23:23;56421.91;;;-142.21;100.00
5053;BME280;2545;50.892;5.740;2022-12-08T00:25:48;56412.13;;;-142.21;100.00
5053;BME280;2545;50.892;5.740;2022-12-08T00:28:14;56414.06;;;-142.21;100.00
5053;BME280;2545;50.892;5.740;2022-12-08T00:30:40;56414.06;;;-142.21;100.00
5053;BME280;2545;50.892;5.740;2022-12-08T00:33:06;56476.81;;;-142.21;100.00
5053;BME280;2545;50.892;5.740;2022-12-08T00:35:31;56410.16;;;-142.21;100.00
5053;BME280;2545;50.892;5.740;2022-12-08T00:37:56;56427.81;;;-142.21;100.00
5053;BME280;2545;50.892;5.740;2022-12-08T00:40:21;56398.38;;;-142.21;100.00
5053;BME280;2545;50.892;5.740;2022-12-08T00:42:47;56388.59;;;-142.21;100.00
5053;BME280;2545;50.892;5.740;2022-12-08T00:45:12;56418.00;;;-142.21;100.00
5053;BME280;2545;50.892;5.740;2022-12-08T00:47:37;56418.00;;;-142.21;100.00
5053;BME280;2545;50.892;5.740;2022-12-08T00:50:03;56396.44;;;-142.21;100.00
5053;BME280;2545;50.892;5.740;2022-12-08T00:52:29;56382.69;;;-142.21;100.00
5053;BME280;2545;50.892;5.740;2022-12-08T00:54:54;56400.34;;;-142.21;100.00
5053;BME280;2545;50.892;5.740;2022-12-08T00:57:19;56419.97;;;-142.21;100.00
5053;BME280;2545;50.892;5.740;2022-12-08T00:59:45;56433.69;;;-142.21;100.00
5053;BME280;2545;50.892;5.740;2022-12-08T01:02:10;56427.81;;;-142.21;100.00
5053;BME280;2545;50.892;5.740;2022-12-08T01:04:35;56418.00;;;-142.21;100.00
5053;BME280;2545;50.892;5.740;2022-12-08T01:07:01;56451.34;;;-142.21;100.00
5053;BME280;2545;50.892;5.740;2022-12-08T01:09:26;56410.16;;;-142.21;100.00
5053;BME280;2545;50.892;5.740;2022-12-08T01:11:51;56410.16;;;-142.21;100.00
5053;BME280;2545;50.892;5.740;2022-12-08T01:14:16;56402.31;;;-142.21;100.00
5053;BME280;2545;50.892;5.740;2022-12-08T01:16:42;56435.66;;;-142.21;100.00
5053;BME280;2545;50.892;5.740;2022-12-08T01:19:10;56435.66;;;-142.21;100.00
5053;BME280;2545;50.892;5.740;2022-12-08T01:21:35;56427.81;;;-142.21;100.00
5053;BME280;2545;50.892;5.740;2022-12-08T01:24:01;56441.53;;;-142.21;100.00
5053;BME280;2545;50.892;5.740;2022-12-08T01:26:27;56453.28;;;-142.21;100.00
5053;BME280;2545;50.892;5.740;2022-12-08T01:28:52;56412.13;;;-142.21;100.00
5053;BME280;2545;50.892;5.740;2022-12-08T01:31:19;56406.22;;;-142.21;100.00
5053;BME280;2545;50.892;5.740;2022-12-08T01:33:45;56421.91;;;-142.21;100.00
5053;BME280;2545;50.892;5.740;2022-12-08T01:36:22;56419.97;;;-142.21;100.00
5053;BME280;2545;50.892;5.740;2022-12-08T01:38:49;56376.81;;;-142.21;100.00
5053;BME280;2545;50.892;5.740;2022-12-08T01:41:16;56463.09;;;-142.21;100.00
5053;BME280;2545;50.892;5.740;2022-12-08T01:43:53;56418.00;;;-142.21;100.00
5053;BME280;2545;50.892;5.740;2022-12-08T01:46:18;56433.69;;;-142.21;100.00
5053;BME280;2545;50.892;5.740;2022-12-08T01:48:44;56429.75;;;-142.21;100.00
5053;BME280;2545;50.892;5.740;2022-12-08T01:51:09;56419.97;;;-142.21;100.00
5053;BME280;2545;50.892;5.740;2022-12-08T01:53:35;56465.06;;;-142.21;100.00
5053;BME280;2545;50.892;5.740;2022-12-08T01:56:05;56386.63;;;-142.21;100.00
5053;BME280;2545;50.892;5.740;2022-12-08T01:58:35;56437.59;;;-142.21;100.00
5053;BME280;2545;50.892;5.740;2022-12-08T02:01:02;56445.44;;;-142.21;100.00
5053;BME280;2545;50.892;5.740;2022-12-08T02:03:33;56421.91;;;-142.21;100.00
5053;BME280;2545;50.892;5.740;2022-12-08T02:06:02;56406.22;;;-142.21;100.00
5053;BME280;2545;50.892;5.740;2022-12-08T02:08:27;56380.75;;;-142.21;100.00
5053;BME280;2545;50.892;5.740;2022-12-08T02:10:53;56372.91;;;-142.21;100.00
5053;BME280;2545;50.892;5.740;2022-12-08T02:13:20;56404.28;;;-142.21;100.00
5053;BME280;2545;50.892;5.740;2022-12-08T02:18:45;56416.03;;;-142.21;100.00
5053;BME280;2545;50.892;5.740;2022-12-08T02:24:09;56429.75;;;-142.21;100.00
5053;BME280;2545;50.892;5.740;2022-12-08T02:35:35;56406.22;;;-142.21;100.00
5053;BME280;2545;50.892;5.740;2022-12-08T02:38:22;56429.75;;;-142.21;100.00
5053;BME280;2545;50.892;5.740;2022-12-08T02:43:43;56439.56;;;-142.21;100.00
5053;BME280;2545;50.892;5.740;2022-12-08T02:46:19;56435.66;;;-142.21;100.00
5053;BME280;2545;50.892;5.740;2022-12-08T02:48:46;56443.50;;;-142.21;100.00
5053;BME280;2545;50.892;5.740;2022-12-08T02:51:12;56419.97;;;-142.21;100.00
5053;BME280;2545;50.892;5.740;2022-12-08T02:53:38;56412.13;;;-142.21;100.00
5053;BME280;2545;50.892;5.740;2022-12-08T03:06:44;56435.66;;;-142.21;100.00
5053;BME280;2545;50.892;5.740;2022-12-08T03:09:33;56451.34;;;-142.21;100.00
5053;BME280;2545;50.892;5.740;2022-12-08T03:12:09;56421.91;;;-142.21;100.00
5053;BME280;2545;50.892;5.740;2022-12-08T03:14:37;56429.75;;;-142.21;100.00
5053;BME280;2545;50.892;5.740;2022-12-08T03:17:04;56412.13;;;-142.21;100.00
5053;BME280;2545;50.892;5.740;2022-12-08T03:19:33;56414.06;;;-142.21;100.00
5053;BME280;2545;50.892;5.740;2022-12-08T03:22:02;56406.22;;;-142.21;100.00
5053;BME280;2545;50.892;5.740;2022-12-08T03:24:35;56416.03;;;-142.21;100.00
5053;BME280;2545;50.892;5.740;2022-12-08T03:27:05;56421.91;;;-142.21;100.00
5053;BME280;2545;50.892;5.740;2022-12-08T03:29:31;56414.06;;;-142.21;100.00
5053;BME280;2545;50.892;5.740;2022-12-08T03:32:01;56449.38;;;-142.21;100.00
5053;BME280;2545;50.892;5.740;2022-12-08T03:34:30;56398.38;;;-142.21;100.00
5053;BME280;2545;50.892;5.740;2022-12-08T03:36:55;56390.53;;;-142.21;100.00
5053;BME280;2545;50.892;5.740;2022-12-08T03:39:21;56419.97;;;-142.21;100.00
5053;BME280;2545;50.892;5.740;2022-12-08T03:41:46;56437.59;;;-142.21;100.00
5053;BME280;2545;50.892;5.740;2022-12-08T03:44:12;56427.81;;;-142.21;100.00
5053;BME280;2545;50.892;5.740;2022-12-08T03:46:37;56441.53;;;-142.21;100.00
5053;BME280;2545;50.892;5.740;2022-12-08T03:49:03;56421.91;;;-142.21;100.00
5053;BME280;2545;50.892;5.740;2022-12-08T03:51:29;56445.44;;;-142.21;100.00
5053;BME280;2545;50.892;5.740;2022-12-08T03:53:54;56414.06;;;-142.21;100.00
5053;BME280;2545;50.892;5.740;2022-12-08T03:56:26;56445.44;;;-142.21;100.00
5053;BME280;2545;50.892;5.740;2022-12-08T03:58:53;56386.63;;;-142.21;100.00
5053;BME280;2545;50.892;5.740;2022-12-08T04:01:19;56445.44;;;-142.21;100.00
5053;BME280;2545;50.892;5.740;2022-12-08T04:03:44;56421.91;;;-142.21;100.00
5053;BME280;2545;50.892;5.740;2022-12-08T04:06:10;56416.03;;;-142.21;100.00
5053;BME280;2545;50.892;5.740;2022-12-08T04:08:35;56404.28;;;-142.21;100.00
5053;BME280;2545;50.892;5.740;2022-12-08T04:11:00;56427.81;;;-142.21;100.00
5053;BME280;2545;50.892;5.740;2022-12-08T04:13:26;56429.75;;;-142.21;100.00
5053;BME280;2545;50.892;5.740;2022-12-08T04:15:52;56414.06;;;-142.21;100.00
5053;BME280;2545;50.892;5.740;2022-12-08T04:18:17;56427.81;;;-142.21;100.00
5053;BME280;2545;50.892;5.740;2022-12-08T04:20:44;56378.78;;;-142.21;100.00
5053;BME280;2545;50.892;5.740;2022-12-08T04:23:10;56406.22;;;-142.21;100.00
5053;BME280;2545;50.892;5.740;2022-12-08T04:25:36;56441.53;;;-142.21;100.00
5053;BME280;2545;50.892;5.740;2022-12-08T04:28:02;56408.19;;;-142.21;100.00
5053;BME280;2545;50.892;5.740;2022-12-08T04:30:28;56394.47;;;-142.21;100.00
5053;BME280;2545;50.892;5.740;2022-12-08T04:32:53;56408.19;;;-142.21;100.00
5053;BME280;2545;50.892;5.740;2022-12-08T04:35:19;56410.16;;;-142.21;100.00
5053;BME280;2545;50.892;5.740;2022-12-08T04:37:44;56410.16;;;-142.21;100.00
5053;BME280;2545;50.892;5.740;2022-12-08T04:40:10;56400.34;;;-142.21;100.00
5053;BME280;2545;50.892;5.740;2022-12-08T04:42:36;56421.91;;;-142.21;100.00
5053;BME280;2545;50.892;5.740;2022-12-08T04:45:02;56412.13;;;-142.21;100.00
5053;BME280;2545;50.892;5.740;2022-12-08T04:47:27;56443.50;;;-142.21;100.00
5053;BME280;2545;50.892;5.740;2022-12-08T04:49:52;56398.38;;;-142.21;100.00
5053;BME280;2545;50.892;5.740;2022-12-08T04:52:18;56419.97;;;-142.21;100.00
5053;BME280;2545;50.892;5.740;2022-12-08T04:54:43;56445.44;;;-142.21;100.00
5053;BME280;2545;50.892;5.740;2022-12-08T04:57:08;56398.38;;;-142.21;100.00
5053;BME280;2545;50.892;5.740;2022-12-08T04:59:34;56421.91;;;-142.21;100.00
5053;BME280;2545;50.892;5.740;2022-12-08T05:01:59;56414.06;;;-142.21;100.00
5053;BME280;2545;50.892;5.740;2022-12-08T05:04:24;56451.34;;;-142.21;100.00
5053;BME280;2545;50.892;5.740;2022-12-08T05:06:50;56414.06;;;-142.21;100.00
5053;BME280;2545;50.892;5.740;2022-12-08T05:09:15;56396.44;;;-142.21;100.00
5053;BME280;2545;50.892;5.740;2022-12-08T05:11:40;56416.03;;;-142.21;100.00
5053;BME280;2545;50.892;5.740;2022-12-08T05:14:17;56457.22;;;-142.21;100.00
5053;BME280;2545;50.892;5.740;2022-12-08T05:16:43;56443.50;;;-142.21;100.00
5053;BME280;2545;50.892;5.740;2022-12-08T05:19:09;56374.84;;;-142.21;100.00
5053;BME280;2545;50.892;5.740;2022-12-08T05:21:34;56437.59;;;-142.21;100.00
5053;BME280;2545;50.892;5.740;2022-12-08T05:23:59;56431.72;;;-142.21;100.00
5053;BME280;2545;50.892;5.740;2022-12-08T05:26:25;56419.97;;;-142.21;100.00
5053;BME280;2545;50.892;5.740;2022-12-08T05:28:50;56392.50;;;-142.21;100.00
5053;BME280;2545;50.892;5.740;2022-12-08T05:31:16;56404.28;;;-142.21;100.00
5053;BME280;2545;50.892;5.740;2022-12-08T05:33:43;56449.38;;;-142.21;100.00
5053;BME280;2545;50.892;5.740;2022-12-08T05:36:11;56429.75;;;-142.21;100.00
5053;BME280;2545;50.892;5.740;2022-12-08T05:38:37;56439.56;;;-142.21;100.00
5053;BME280;2545;50.892;5.740;2022-12-08T05:41:04;56427.81;;;-142.21;100.00
5053;BME280;2545;50.892;5.740;2022-12-08T05:43:29;56406.22;;;-142.21;100.00
5053;BME280;2545;50.892;5.740;2022-12-08T05:45:55;56404.28;;;-142.21;100.00
5053;BME280;2545;50.892;5.740;2022-12-08T05:48:20;56410.16;;;-142.21;100.00
5053;BME280;2545;50.892;5.740;2022-12-08T05:50:46;56416.03;;;-142.21;100.00
5053;BME280;2545;50.892;5.740;2022-12-08T05:53:13;56410.16;;;-142.21;100.00
5053;BME280;2545;50.892;5.740;2022-12-08T05:55:38;56421.91;;;-142.21;100.00
5053;BME280;2545;50.892;5.740;2022-12-08T05:58:05;56374.84;;;-142.21;100.00
5053;BME280;2545;50.892;5.740;2022-12-08T06:00:30;56378.78;;;-142.21;100.00
5053;BME280;2545;50.892;5.740;2022-12-08T06:02:59;56408.19;;;-142.21;100.00
5053;BME280;2545;50.892;5.740;2022-12-08T06:05:25;56451.34;;;-142.21;100.00
5053;BME280;2545;50.892;5.740;2022-12-08T06:07:50;56441.53;;;-142.21;100.00
5053;BME280;2545;50.892;5.740;2022-12-08T06:10:15;56406.22;;;-142.21;100.00
5053;BME280;2545;50.892;5.740;2022-12-08T06:12:41;56410.16;;;-142.21;100.00
5053;BME280;2545;50.892;5.740;2022-12-08T06:15:06;56394.47;;;-142.21;100.00
5053;BME280;2545;50.892;5.740;2022-12-08T06:17:32;56398.38;;;-142.21;100.00
5053;BME280;2545;50.892;5.740;2022-12-08T06:19:57;56408.19;;;-142.21;100.00
5053;BME280;2545;50.892;5.740;2022-12-08T06:22:22;56423.88;;;-142.21;100.00
5053;BME280;2545;50.892;5.740;2022-12-08T06:24:48;56437.59;;;-142.21;100.00
5053;BME280;2545;50.892;5.740;2022-12-08T06:27:13;56392.50;;;-142.21;100.00
5053;BME280;2545;50.892;5.740;2022-12-08T06:29:38;56378.78;;;-142.21;100.00
5053;BME280;2545;50.892;5.740;2022-12-08T06:32:04;56443.50;;;-142.21;100.00
5053;BME280;2545;50.892;5.740;2022-12-08T06:34:29;56421.91;;;-142.21;100.00
5053;BME280;2545;50.892;5.740;2022-12-08T06:36:54;56400.34;;;-142.21;100.00
5053;BME280;2545;50.892;5.740;2022-12-08T06:39:20;56392.50;;;-142.21;100.00
5053;BME280;2545;50.892;5.740;2022-12-08T06:41:45;56414.06;;;-142.21;100.00
5053;BME280;2545;50.892;5.740;2022-12-08T06:44:29;56398.38;;;-142.21;100.00
5053;BME280;2545;50.892;5.740;2022-12-08T06:46:54;56402.31;;;-142.21;100.00
5053;BME280;2545;50.892;5.740;2022-12-08T06:49:19;56390.53;;;-142.21;100.00
5053;BME280;2545;50.892;5.740;2022-12-08T06:51:45;56447.41;;;-142.21;100.00
5053;BME280;2545;50.892;5.740;2022-12-08T06:54:10;56435.66;;;-142.21;100.00
5053;BME280;2545;50.892;5.740;2022-12-08T06:56:35;56388.59;;;-142.21;100.00
5053;BME280;2545;50.892;5.740;2022-12-08T06:59:02;56406.22;;;-142.21;100.00
5053;BME280;2545;50.892;5.740;2022-12-08T07:01:28;56441.53;;;-142.21;100.00
5053;BME280;2545;50.892;5.740;2022-12-08T07:03:53;56414.06;;;-142.21;100.00
5053;BME280;2545;50.892;5.740;2022-12-08T07:06:22;56388.59;;;-142.21;100.00
5053;BME280;2545;50.892;5.740;2022-12-08T07:08:47;56418.00;;;-142.21;100.00
5053;BME280;2545;50.892;5.740;2022-12-08T07:11:13;56394.47;;;-142.21;100.00
5053;BME280;2545;50.892;5.740;2022-12-08T07:13:38;56435.66;;;-142.21;100.00
5053;BME280;2545;50.892;5.740;2022-12-08T07:16:08;56414.06;;;-142.21;100.00
5053;BME280;2545;50.892;5.740;2022-12-08T07:18:34;56423.88;;;-142.21;100.00
5053;BME280;2545;50.892;5.740;2022-12-08T07:21:07;56410.16;;;-142.21;100.00
5053;BME280;2545;50.892;5.740;2022-12-08T07:23:33;56394.47;;;-142.21;100.00
5053;BME280;2545;50.892;5.740;2022-12-08T07:26:04;56433.69;;;-142.21;100.00
5053;BME280;2545;50.892;5.740;2022-12-08T07:28:34;56398.38;;;-142.21;100.00
5053;BME280;2545;50.892;5.740;2022-12-08T07:31:00;56429.75;;;-142.21;100.00
5053;BME280;2545;50.892;5.740;2022-12-08T07:33:26;56427.81;;;-142.21;100.00
5053;BME280;2545;50.892;5.740;2022-12-08T07:36:00;56461.13;;;-142.21;100.00
5053;BME280;2545;50.892;5.740;2022-12-08T07:38:26;56437.59;;;-142.21;100.00
5053;BME280;2545;50.892;5.740;2022-12-08T07:40:52;56429.75;;;-142.21;100.00
5053;BME280;2545;50.892;5.740;2022-12-08T07:43:18;56398.38;;;-142.21;100.00
5053;BME280;2545;50.892;5.740;2022-12-08T07:45:44;56425.84;;;-142.21;100.00
5053;BME280;2545;50.892;5.740;2022-12-08T07:48:10;56425.84;;;-142.21;100.00
5053;BME280;2545;50.892;5.740;2022-12-08T07:50:35;56443.50;;;-142.21;100.00
5053;BME280;2545;50.892;5.740;2022-12-08T07:53:00;56427.81;;;-142.21;100.00
5053;BME280;2545;50.892;5.740;2022-12-08T07:55:26;56431.72;;;-142.21;100.00
5053;BME280;2545;50.892;5.740;2022-12-08T07:57:51;56400.34;;;-142.21;100.00
5053;BME280;2545;50.892;5.740;2022-12-08T08:00:18;56402.31;;;-142.21;100.00
5053;BME280;2545;50.892;5.740;2022-12-08T08:02:44;56410.16;;;-142.21;100.00
5053;BME280;2545;50.892;5.740;2022-12-08T08:05:10;56382.69;;;-142.21;100.00
5053;BME280;2545;50.892;5.740;2022-12-08T08:07:39;56419.97;;;-142.21;100.00
5053;BME280;2545;50.892;5.740;2022-12-08T08:10:11;56406.22;;;-142.21;100.00
5053;BME280;2545;50.892;5.740;2022-12-08T08:12:36;56423.88;;;-142.21;100.00
5053;BME280;2545;50.892;5.740;2022-12-08T08:15:04;56457.22;;;-142.21;100.00
5053;BME280;2545;50.892;5.740;2022-12-08T08:17:31;56402.31;;;-142.21;100.00
5053;BME280;2545;50.892;5.740;2022-12-08T08:19:56;56402.31;;;-142.21;100.00
5053;BME280;2545;50.892;5.740;2022-12-08T08:22:23;56445.44;;;-142.21;100.00
5053;BME280;2545;50.892;5.740;2022-12-08T08:24:49;56410.16;;;-142.21;100.00
5053;BME280;2545;50.892;5.740;2022-12-08T08:27:14;56404.28;;;-142.21;100.00
5053;BME280;2545;50.892;5.740;2022-12-08T08:29:39;56414.06;;;-142.21;100.00
5053;BME280;2545;50.892;5.740;2022-12-08T08:32:05;56414.06;;;-142.21;100.00
5053;BME280;2545;50.892;5.740;2022-12-08T08:34:30;56414.06;;;-142.21;100.00
5053;BME280;2545;50.892;5.740;2022-12-08T08:36:55;56465.06;;;-142.21;100.00
5053;BME280;2545;50.892;5.740;2022-12-08T08:39:21;56406.22;;;-142.21;100.00
5053;BME280;2545;50.892;5.740;2022-12-08T08:41:46;56419.97;;;-142.21;100.00
5053;BME280;2545;50.892;5.740;2022-12-08T08:44:12;56423.88;;;-142.21;100.00
5053;BME280;2545;50.892;5.740;2022-12-08T08:46:38;56433.69;;;-142.21;100.00
5053;BME280;2545;50.892;5.740;2022-12-08T08:49:04;56390.53;;;-142.21;100.00
5053;BME280;2545;50.892;5.740;2022-12-08T08:51:29;56386.63;;;-142.21;100.00
5053;BME280;2545;50.892;5.740;2022-12-08T08:53:54;56408.19;;;-142.21;100.00
5053;BME280;2545;50.892;5.740;2022-12-08T08:56:20;56437.59;;;-142.21;100.00
5053;BME280;2545;50.892;5.740;2022-12-08T08:58:47;56421.91;;;-142.21;100.00
5053;BME280;2545;50.892;5.740;2022-12-08T09:01:18;56437.59;;;-142.21;100.00
5053;BME280;2545;50.892;5.740;2022-12-08T09:03:44;56412.13;;;-142.21;100.00
5053;BME280;2545;50.892;5.740;2022-12-08T09:06:10;56433.69;;;-142.21;100.00
5053;BME280;2545;50.892;5.740;2022-12-08T09:08:35;56451.34;;;-142.21;100.00
5053;BME280;2545;50.892;5.740;2022-12-08T09:11:00;56400.34;;;-142.21;100.00
5053;BME280;2545;50.892;5.740;2022-12-08T09:13:26;56433.69;;;-142.21;100.00
5053;BME280;2545;50.892;5.740;2022-12-08T09:15:51;56423.88;;;-142.21;100.00
5053;BME280;2545;50.892;5.740;2022-12-08T09:18:16;56457.22;;;-142.21;100.00
5053;BME280;2545;50.892;5.740;2022-12-08T09:20:42;56406.22;;;-142.21;100.00
5053;BME280;2545;50.892;5.740;2022-12-08T09:23:07;56431.72;;;-142.21;100.00
5053;BME280;2545;50.892;5.740;2022-12-08T09:25:33;56457.22;;;-142.21;100.00
5053;BME280;2545;50.892;5.740;2022-12-08T09:27:58;56406.22;;;-142.21;100.00
5053;BME280;2545;50.892;5.740;2022-12-08T09:30:23;56419.97;;;-142.21;100.00
5053;BME280;2545;50.892;5.740;2022-12-08T09:32:49;56394.47;;;-142.21;100.00
5053;BME280;2545;50.892;5.740;2022-12-08T09:35:14;56423.88;;;-142.21;100.00
5053;BME280;2545;50.892;5.740;2022-12-08T09:37:39;56472.91;;;-142.21;100.00
5053;BME280;2545;50.892;5.740;2022-12-08T09:40:06;56447.41;;;-142.21;100.00
5053;BME280;2545;50.892;5.740;2022-12-08T09:42:51;56433.69;;;-142.21;100.00
5053;BME280;2545;50.892;5.740;2022-12-08T09:45:21;56421.91;;;-142.21;100.00
5053;BME280;2545;50.892;5.740;2022-12-08T09:47:57;56414.06;;;-142.21;100.00
5053;BME280;2545;50.892;5.740;2022-12-08T09:50:31;56445.44;;;-142.21;100.00
5053;BME280;2545;50.892;5.740;2022-12-08T09:53:14;56447.41;;;-142.21;100.00
5053;BME280;2545;50.892;5.740;2022-12-08T09:55:52;56394.47;;;-142.21;100.00
5053;BME280;2545;50.892;5.740;2022-12-08T09:58:26;56451.34;;;-142.21;100.00
5053;BME280;2545;50.892;5.740;2022-12-08T10:00:53;56412.13;;;-142.21;100.00
5053;BME280;2545;50.892;5.740;2022-12-08T10:03:20;56370.94;;;-142.21;100.00
5053;BME280;2545;50.892;5.740;2022-12-08T10:09:16;56421.91;;;-142.21;100.00
5053;BME280;2545;50.892;5.740;2022-12-08T10:11:59;56380.75;;;-142.21;100.00
5053;BME280;2545;50.892;5.740;2022-12-08T10:14:42;56421.91;;;-142.21;100.00
5053;BME280;2545;50.892;5.740;2022-12-08T10:17:24;56431.72;;;-142.21;100.00
5053;BME280;2545;50.892;5.740;2022-12-08T10:19:58;56457.22;;;-142.21;100.00
5053;BME280;2545;50.892;5.740;2022-12-08T10:22:28;56425.84;;;-142.21;100.00
5053;BME280;2545;50.892;5.740;2022-12-08T10:25:08;56425.84;;;-142.21;100.00
5053;BME280;2545;50.892;5.740;2022-12-08T10:27:35;56433.69;;;-142.21;100.00
5053;BME280;2545;50.892;5.740;2022-12-08T10:30:08;56423.88;;;-142.21;100.00
5053;BME280;2545;50.892;5.740;2022-12-08T10:32:34;56380.75;;;-142.21;100.00
5053;BME280;2545;50.892;5.740;2022-12-08T10:35:06;56410.16;;;-142.21;100.00
5053;BME280;2545;50.892;5.740;2022-12-08T10:37:32;56459.19;;;-142.21;100.00
5053;BME280;2545;50.892;5.740;2022-12-08T10:40:18;56437.59;;;-142.21;100.00
5053;BME280;2545;50.892;5.740;2022-12-08T10:42:54;56406.22;;;-142.21;100.00
5053;BME280;2545;50.892;5.740;2022-12-08T10:45:32;56421.91;;;-142.21;100.00
5053;BME280;2545;50.892;5.740;2022-12-08T10:48:29;56404.28;;;-142.21;100.00
5053;BME280;2545;50.892;5.740;2022-12-08T10:50:58;56437.59;;;-142.21;100.00
5053;BME280;2545;50.892;5.740;2022-12-08T10:53:28;56412.13;;;-142.21;100.00
5053;BME280;2545;50.892;5.740;2022-12-08T11:00:57;56455.25;;;-142.21;100.00
5053;BME280;2545;50.892;5.740;2022-12-08T11:03:28;56425.84;;;-142.21;100.00
5053;BME280;2545;50.892;5.740;2022-12-08T11:05:56;56418.00;;;-142.21;99.95
5053;BME280;2545;50.892;5.740;2022-12-08T11:08:23;56419.97;;;-142.21;100.00
5053;BME280;2545;50.892;5.740;2022-12-08T11:10:48;56410.16;;;-142.21;100.00
5053;BME280;2545;50.892;5.740;2022-12-08T11:13:22;56429.75;;;-142.21;100.00
5053;BME280;2545;50.892;5.740;2022-12-08T11:15:48;56414.06;;;-142.21;100.00
5053;BME280;2545;50.892;5.740;2022-12-08T11:18:41;56423.88;;;-142.21;100.00
5053;BME280;2545;50.892;5.740;2022-12-08T11:21:16;56418.00;;;-142.21;100.00
5053;BME280;2545;50.892;5.740;2022-12-08T11:23:47;56429.75;;;-142.21;100.00
5053;BME280;2545;50.892;5.740;2022-12-08T11:26:29;56416.03;;;-142.21;100.00
5053;BME280;2545;50.892;5.740;2022-12-08T11:28:56;56414.06;;;-142.21;99.97
5053;BME280;2545;50.892;5.740;2022-12-08T11:31:32;56386.63;;;-142.21;99.33
5053;BME280;2545;50.892;5.740;2022-12-08T11:34:00;56408.19;;;-142.21;99.68
5053;BME280;2545;50.892;5.740;2022-12-08T11:36:28;56402.31;;;-142.21;99.85
5053;BME280;2545;50.892;5.740;2022-12-08T11:38:57;56400.34;;;-142.21;99.64
5053;BME280;2545;50.892;5.740;2022-12-08T11:41:27;56392.50;;;-142.21;99.47
5053;BME280;2545;50.892;5.740;2022-12-08T11:44:04;56392.50;;;-142.21;99.05
5053;BME280;2545;50.892;5.740;2022-12-08T11:46:40;56382.69;;;-142.21;99.57
5053;BME280;2545;50.892;5.740;2022-12-08T11:49:12;56435.66;;;-142.21;100.00
5053;BME280;2545;50.892;5.740;2022-12-08T11:51:43;56408.19;;;-142.21;100.00
5053;BME280;2545;50.892;5.740;2022-12-08T11:54:32;56398.38;;;-142.21;99.84
5053;BME280;2545;50.892;5.740;2022-12-08T11:57:04;56374.84;;;-142.21;99.91
5053;BME280;2545;50.892;5.740;2022-12-08T11:59:44;56431.72;;;-142.21;99.19
5053;BME280;2545;50.892;5.740;2022-12-08T12:02:15;56429.75;;;-142.21;99.51
5053;BME280;2545;50.892;5.740;2022-12-08T12:04:59;56378.78;;;-142.21;100.00
5053;BME280;2545;50.892;5.740;2022-12-08T12:07:35;56402.31;;;-142.21;100.00
5053;BME280;2545;50.892;5.740;2022-12-08T12:12:49;56412.13;;;-142.21;98.86
5053;BME280;2545;50.892;5.740;2022-12-08T12:21:29;56404.28;;;-142.21;97.19
5053;BME280;2545;50.892;5.740;2022-12-08T12:24:17;56418.00;;;-142.21;97.12
5053;BME280;2545;50.892;5.740;2022-12-08T12:27:05;56439.56;;;-142.21;94.77
5053;BME280;2545;50.892;5.740;2022-12-08T12:29:34;56419.97;;;-142.21;94.79
5053;BME280;2545;50.892;5.740;2022-12-08T12:32:06;56425.84;;;-142.21;93.62
5053;BME280;2545;50.892;5.740;2022-12-08T12:34:52;56412.13;;;-142.21;91.06
5053;BME280;2545;50.892;5.740;2022-12-08T12:37:21;56378.78;;;-142.21;90.60
5053;BME280;2545;50.892;5.740;2022-12-08T12:40:06;56394.47;;;-142.21;88.16
5053;BME280;2545;50.892;5.740;2022-12-08T12:42:43;56412.13;;;-142.21;83.51
5053;BME280;2545;50.892;5.740;2022-12-08T12:45:32;56408.19;;;-142.21;81.38
5053;BME280;2545;50.892;5.740;2022-12-08T12:56:00;56423.88;;;-142.21;79.57
5053;BME280;2545;50.892;5.740;2022-12-08T13:06:03;56414.06;;;-142.21;79.04
5053;BME280;2545;50.892;5.740;2022-12-08T13:08:30;56398.38;;;-142.21;76.37
5053;BME280;2545;50.892;5.740;2022-12-08T13:11:05;56421.91;;;-142.21;76.39
5053;BME280;2545;50.892;5.740;2022-12-08T13:13:33;56418.00;;;-142.21;75.57
5053;BME280;2545;50.892;5.740;2022-12-08T13:18:39;56423.88;;;-142.21;71.94
5053;BME280;2545;50.892;5.740;2022-12-08T13:33:59;56410.16;;;-142.21;76.46
5053;BME280;2545;50.892;5.740;2022-12-08T13:36:30;56408.19;;;-142.21;78.30
5053;BME280;2545;50.892;5.740;2022-12-08T13:38:57;56404.28;;;-142.21;79.94
5053;BME280;2545;50.892;5.740;2022-12-08T13:41:33;56394.47;;;-142.21;80.11
5053;BME280;2545;50.892;5.740;2022-12-08T13:44:17;56400.34;;;-142.21;81.36
5053;BME280;2545;50.892;5.740;2022-12-08T13:46:50;56408.19;;;-142.21;81.76
5053;BME280;2545;50.892;5.740;2022-12-08T13:49:23;56390.53;;;-142.21;81.05
5053;BME280;2545;50.892;5.740;2022-12-08T13:51:52;56425.84;;;-142.21;82.24
5053;BME280;2545;50.892;5.740;2022-12-08T13:54:25;56372.91;;;-142.21;81.86
5053;BME280;2545;50.892;5.740;2022-12-08T13:56:54;56372.91;;;-142.21;83.43
5053;BME280;2545;50.892;5.740;2022-12-08T13:59:26;56394.47;;;-142.21;83.43
5053;BME280;2545;50.892;5.740;2022-12-08T14:02:00;56429.75;;;-142.21;83.43
5053;BME280;2545;50.892;5.740;2022-12-08T14:04:26;56394.47;;;-142.21;84.62
5053;BME280;2545;50.892;5.740;2022-12-08T14:06:58;56414.06;;;-142.21;83.93
5053;BME280;2545;50.892;5.740;2022-12-08T14:09:28;56429.75;;;-142.21;85.16
5053;BME280;2545;50.892;5.740;2022-12-08T14:12:06;56406.22;;;-142.21;84.32
5053;BME280;2545;50.892;5.740;2022-12-08T14:14:38;56386.63;;;-142.21;83.55
5053;BME280;2545;50.892;5.740;2022-12-08T14:17:08;56404.28;;;-142.21;83.70